sensor_id;sensor_type;location;lat;lon;timestamp;pressure;altitude;pressure_sealevel;temperature;humidity
71107;BME280;58763;47.982;11.516;2023-05-07T00:01:15;94097.06;;;14.00;73.88
71107;BME280;58763;47.982;11.516;2023-05-07T00:03:40;94107.19;;;14.08;72.81
71107;BME280;58763;47.982;11.516;2023-05-07T00:06:07;94103.81;;;14.02;73.05
71107;BME280;58763;47.982;11.516;2023-05-07T00:08:32;94098.22;;;14.07;72.80
71107;BME280;58763;47.982;11.516;2023-05-07T00:10:58;94100.16;;;14.07;72.76
71107;BME280;58763;47.982;11.516;2023-05-07T00:13:23;94096.50;;;14.11;72.76
71107;BME280;58763;47.982;11.516;2023-05-07T00:15:49;94100.31;;;14.10;73.33
71107;BME280;58763;47.982;11.516;2023-05-07T00:18:14;94101.13;;;14.11;72.92
71107;BME280;58763;47.982;11.516;2023-05-07T00:20:40;94099.66;;;14.05;73.08
71107;BME280;58763;47.982;11.516;2023-05-07T00:23:06;94099.94;;;14.03;73.44
71107;BME280;58763;47.982;11.516;2023-05-07T00:25:31;94087.50;;;14.02;73.58
71107;BME280;58763;47.982;11.516;2023-05-07T00:27:56;94100.94;;;14.07;74.11
71107;BME280;58763;47.982;11.516;2023-05-07T00:30:27;94092.94;;;14.02;74.01
71107;BME280;58763;47.982;11.516;2023-05-07T00:32:53;94095.16;;;14.00;73.99
71107;BME280;58763;47.982;11.516;2023-05-07T00:35:19;94091.91;;;13.98;74.42
71107;BME280;58763;47.982;11.516;2023-05-07T00:37:45;94090.31;;;13.97;74.35
71107;BME280;58763;47.982;11.516;2023-05-07T00:40:10;94089.41;;;14.02;73.89
71107;BME280;58763;47.982;11.516;2023-05-07T00:42:36;94085.00;;;13.92;74.19
71107;BME280;58763;47.982;11.516;2023-05-07T00:45:02;94087.22;;;13.90;74.16
71107;BME280;58763;47.982;11.516;2023-05-07T00:47:28;94090.38;;;13.83;74.71
71107;BME280;58763;47.982;11.516;2023-05-07T00:49:54;94087.19;;;13.81;74.54
71107;BME280;58763;47.982;11.516;2023-05-07T00:52:21;94085.72;;;13.84;74.55
71107;BME280;58763;47.982;11.516;2023-05-07T00:54:49;94083.38;;;13.91;74.48
71107;BME280;58763;47.982;11.516;2023-05-07T00:57:15;94079.88;;;13.91;74.44
71107;BME280;58763;47.982;11.516;2023-05-07T00:59:41;94088.22;;;13.94;74.20
71107;BME280;58763;47.982;11.516;2023-05-07T01:02:07;94083.72;;;13.90;73.89
71107;BME280;58763;47.982;11.516;2023-05-07T01:04:33;94084.50;;;13.90;74.62
71107;BME280;58763;47.982;11.516;2023-05-07T01:06:59;94090.31;;;13.97;74.77
71107;BME280;58763;47.982;11.516;2023-05-07T01:09:26;94085.94;;;13.88;75.16
71107;BME280;58763;47.982;11.516;2023-05-07T01:11:53;94092.78;;;13.85;75.37
71107;BME280;58763;47.982;11.516;2023-05-07T01:14:20;94086.97;;;13.78;75.46
71107;BME280;58763;47.982;11.516;2023-05-07T01:16:47;94093.22;;;13.78;75.64
71107;BME280;58763;47.982;11.516;2023-05-07T01:19:14;94095.00;;;13.83;75.63
71107;BME280;58763;47.982;11.516;2023-05-07T01:21:47;94089.69;;;13.78;75.29
71107;BME280;58763;47.982;11.516;2023-05-07T01:24:15;94096.75;;;13.79;75.79
71107;BME280;58763;47.982;11.516;2023-05-07T01:26:42;94085.25;;;13.82;75.19
71107;BME280;58763;47.982;11.516;2023-05-07T01:29:08;94083.66;;;13.81;75.29
71107;BME280;58763;47.982;11.516;2023-05-07T01:31:34;94072.88;;;13.76;75.64
71107;BME280;58763;47.982;11.516;2023-05-07T01:34:01;94082.25;;;13.70;76.10
71107;BME280;58763;47.982;11.516;2023-05-07T01:36:29;94077.56;;;13.62;75.78
71107;BME280;58763;47.982;11.516;2023-05-07T01:38:55;94084.09;;;13.61;76.46
71107;BME280;58763;47.982;11.516;2023-05-07T01:41:23;94083.44;;;13.55;76.21
71107;BME280;58763;47.982;11.516;2023-05-07T01:43:50;94079.91;;;13.55;76.89
71107;BME280;58763;47.982;11.516;2023-05-07T01:46:17;94079.91;;;13.55;76.57
71107;BME280;58763;47.982;11.516;2023-05-07T01:48:43;94080.06;;;13.58;76.79
71107;BME280;58763;47.982;11.516;2023-05-07T01:51:11;94083.22;;;13.52;76.48
71107;BME280;58763;47.982;11.516;2023-05-07T01:53:38;94078.41;;;13.49;76.27
71107;BME280;58763;47.982;11.516;2023-05-07T01:56:05;94077.41;;;13.45;75.84
71107;BME280;58763;47.982;11.516;2023-05-07T01:58:30;94072.59;;;13.42;75.76
71107;BME280;58763;47.982;11.516;2023-05-07T02:00:56;94072.97;;;13.49;75.37
71107;BME280;58763;47.982;11.516;2023-05-07T02:03:21;94064.53;;;13.50;75.44
71107;BME280;58763;47.982;11.516;2023-05-07T02:05:47;94062.63;;;13.51;75.19
71107;BME280;58763;47.982;11.516;2023-05-07T02:08:12;94071.69;;;13.46;75.17
71107;BME280;58763;47.982;11.516;2023-05-07T02:10:38;94072.38;;;13.38;75.28
71107;BME280;58763;47.982;11.516;2023-05-07T02:13:04;94074.41;;;13.33;75.65
71107;BME280;58763;47.982;11.516;2023-05-07T02:15:30;94074.72;;;13.31;74.95
71107;BME280;58763;47.982;11.516;2023-05-07T02:20:28;94081.13;;;13.35;75.13
71107;BME280;58763;47.982;11.516;2023-05-07T02:22:54;94078.03;;;13.42;75.20
71107;BME280;58763;47.982;11.516;2023-05-07T02:25:20;94079.06;;;13.32;75.44
71107;BME280;58763;47.982;11.516;2023-05-07T02:27:45;94077.53;;;13.26;75.50
71107;BME280;58763;47.982;11.516;2023-05-07T02:30:12;94079.44;;;13.26;75.94
71107;BME280;58763;47.982;11.516;2023-05-07T02:32:37;94075.31;;;13.28;75.77
71107;BME280;58763;47.982;11.516;2023-05-07T02:35:03;94080.97;;;13.32;75.69
71107;BME280;58763;47.982;11.516;2023-05-07T02:37:29;94081.66;;;13.24;75.80
71107;BME280;58763;47.982;11.516;2023-05-07T02:39:54;94080.66;;;13.33;74.95
71107;BME280;58763;47.982;11.516;2023-05-07T02:42:20;94082.69;;;13.28;75.29
71107;BME280;58763;47.982;11.516;2023-05-07T02:44:45;94082.16;;;13.26;74.92
71107;BME280;58763;47.982;11.516;2023-05-07T02:47:11;94083.28;;;13.25;74.79
71107;BME280;58763;47.982;11.516;2023-05-07T02:49:38;94075.56;;;13.18;75.25
71107;BME280;58763;47.982;11.516;2023-05-07T02:52:04;94085.22;;;13.10;75.78
71107;BME280;58763;47.982;11.516;2023-05-07T02:54:30;94084.47;;;13.05;76.26
71107;BME280;58763;47.982;11.516;2023-05-07T02:56:56;94082.16;;;12.98;76.77
71107;BME280;58763;47.982;11.516;2023-05-07T02:59:22;94086.50;;;12.99;76.78
71107;BME280;58763;47.982;11.516;2023-05-07T03:01:47;94087.00;;;13.01;76.77
71107;BME280;58763;47.982;11.516;2023-05-07T03:04:13;94073.22;;;12.98;77.00
71107;BME280;58763;47.982;11.516;2023-05-07T03:06:39;94077.22;;;13.00;76.38
71107;BME280;58763;47.982;11.516;2023-05-07T03:09:04;94088.72;;;12.97;76.62
71107;BME280;58763;47.982;11.516;2023-05-07T03:11:30;94082.88;;;12.90;76.51
71107;BME280;58763;47.982;11.516;2023-05-07T03:13:56;94082.09;;;12.90;76.72
71107;BME280;58763;47.982;11.516;2023-05-07T03:16:21;94082.66;;;12.87;77.04
71107;BME280;58763;47.982;11.516;2023-05-07T03:18:46;94080.06;;;12.82;76.89
71107;BME280;58763;47.982;11.516;2023-05-07T03:21:12;94071.91;;;12.82;76.85
71107;BME280;58763;47.982;11.516;2023-05-07T03:23:38;94075.13;;;12.84;76.66
71107;BME280;58763;47.982;11.516;2023-05-07T03:26:04;94076.75;;;12.85;76.55
71107;BME280;58763;47.982;11.516;2023-05-07T03:28:30;94072.41;;;12.84;76.65
71107;BME280;58763;47.982;11.516;2023-05-07T03:30:55;94065.09;;;12.84;76.28
71107;BME280;58763;47.982;11.516;2023-05-07T03:33:21;94067.13;;;12.79;76.56
71107;BME280;58763;47.982;11.516;2023-05-07T03:35:46;94065.00;;;12.76;75.90
71107;BME280;58763;47.982;11.516;2023-05-07T03:38:12;94071.09;;;12.81;75.75
71107;BME280;58763;47.982;11.516;2023-05-07T03:40:38;94065.91;;;12.85;76.14
71107;BME280;58763;47.982;11.516;2023-05-07T03:43:03;94072.41;;;12.84;75.77
71107;BME280;58763;47.982;11.516;2023-05-07T03:45:29;94074.94;;;12.80;75.62
71107;BME280;58763;47.982;11.516;2023-05-07T03:47:54;94073.13;;;12.76;75.82
71107;BME280;58763;47.982;11.516;2023-05-07T03:50:20;94074.03;;;12.71;76.04
71107;BME280;58763;47.982;11.516;2023-05-07T03:52:46;94077.84;;;12.70;76.35
71107;BME280;58763;47.982;11.516;2023-05-07T03:55:11;94077.53;;;12.58;76.82
71107;BME280;58763;47.982;11.516;2023-05-07T03:57:37;94075.44;;;12.55;77.68
71107;BME280;58763;47.982;11.516;2023-05-07T04:00:02;94079.25;;;12.54;78.18
71107;BME280;58763;47.982;11.516;2023-05-07T04:02:29;94078.94;;;12.56;78.26
71107;BME280;58763;47.982;11.516;2023-05-07T04:04:55;94082.66;;;12.60;78.34
71107;BME280;58763;47.982;11.516;2023-05-07T04:07:21;94089.28;;;12.67;77.23
71107;BME280;58763;47.982;11.516;2023-05-07T04:09:46;94091.13;;;12.72;77.17
71107;BME280;58763;47.982;11.516;2023-05-07T04:12:12;94097.53;;;12.62;77.02
71107;BME280;58763;47.982;11.516;2023-05-07T04:14:38;94091.63;;;12.60;76.72
71107;BME280;58763;47.982;11.516;2023-05-07T04:17:03;94100.03;;;12.59;76.92
71107;BME280;58763;47.982;11.516;2023-05-07T04:19:30;94099.84;;;12.55;77.51
71107;BME280;58763;47.982;11.516;2023-05-07T04:21:55;94099.34;;;12.53;78.13
71107;BME280;58763;47.982;11.516;2023-05-07T04:24:21;94104.84;;;12.48;77.95
71107;BME280;58763;47.982;11.516;2023-05-07T04:26:46;94106.66;;;12.39;78.18
71107;BME280;58763;47.982;11.516;2023-05-07T04:29:12;94106.94;;;12.37;79.05
71107;BME280;58763;47.982;11.516;2023-05-07T04:31:38;94103.41;;;12.37;79.08
71107;BME280;58763;47.982;11.516;2023-05-07T04:34:03;94107.56;;;12.34;79.68
71107;BME280;58763;47.982;11.516;2023-05-07T04:36:29;94113.09;;;12.43;79.28
71107;BME280;58763;47.982;11.516;2023-05-07T04:38:54;94108.16;;;12.45;79.59
71107;BME280;58763;47.982;11.516;2023-05-07T04:41:20;94107.34;;;12.44;79.21
71107;BME280;58763;47.982;11.516;2023-05-07T04:43:45;94105.06;;;12.52;79.17
71107;BME280;58763;47.982;11.516;2023-05-07T04:46:11;94108.91;;;12.64;78.17
71107;BME280;58763;47.982;11.516;2023-05-07T04:48:36;94103.47;;;12.64;78.20
71107;BME280;58763;47.982;11.516;2023-05-07T04:51:02;94111.38;;;12.61;78.00
71107;BME280;58763;47.982;11.516;2023-05-07T04:53:27;94113.91;;;12.57;78.40
71107;BME280;58763;47.982;11.516;2023-05-07T04:55:56;94115.63;;;12.53;78.75
71107;BME280;58763;47.982;11.516;2023-05-07T04:58:22;94118.84;;;12.55;78.88
71107;BME280;58763;47.982;11.516;2023-05-07T05:00:48;94111.38;;;12.61;79.14
71107;BME280;58763;47.982;11.516;2023-05-07T05:03:14;94125.19;;;12.64;79.02
71107;BME280;58763;47.982;11.516;2023-05-07T05:05:39;94119.44;;;12.66;79.88
71107;BME280;58763;47.982;11.516;2023-05-07T05:08:05;94127.06;;;12.64;80.11
71107;BME280;58763;47.982;11.516;2023-05-07T05:10:30;94121.84;;;12.67;79.94
71107;BME280;58763;47.982;11.516;2023-05-07T05:12:56;94120.25;;;12.66;80.54
71107;BME280;58763;47.982;11.516;2023-05-07T05:15:21;94125.59;;;12.71;80.47
71107;BME280;58763;47.982;11.516;2023-05-07T05:17:47;94121.47;;;12.74;80.57
71107;BME280;58763;47.982;11.516;2023-05-07T05:20:12;94119.03;;;12.72;80.73
71107;BME280;58763;47.982;11.516;2023-05-07T05:22:38;94119.84;;;12.73;81.27
71107;BME280;58763;47.982;11.516;2023-05-07T05:25:04;94127.19;;;12.72;80.49
71107;BME280;58763;47.982;11.516;2023-05-07T05:27:30;94119.75;;;12.78;80.95
71107;BME280;58763;47.982;11.516;2023-05-07T05:29:55;94127.81;;;12.83;80.95
71107;BME280;58763;47.982;11.516;2023-05-07T05:32:21;94112.53;;;12.87;81.29
71107;BME280;58763;47.982;11.516;2023-05-07T05:34:47;94113.84;;;12.89;81.95
71107;BME280;58763;47.982;11.516;2023-05-07T05:37:13;94120.06;;;13.03;81.74
71107;BME280;58763;47.982;11.516;2023-05-07T05:39:38;94113.56;;;13.04;82.59
71107;BME280;58763;47.982;11.516;2023-05-07T05:42:04;94110.44;;;13.11;82.19
71107;BME280;58763;47.982;11.516;2023-05-07T05:44:29;94107.00;;;13.19;82.28
71107;BME280;58763;47.982;11.516;2023-05-07T05:46:55;94118.09;;;13.23;82.11
71107;BME280;58763;47.982;11.516;2023-05-07T05:49:22;94110.44;;;13.25;82.58
71107;BME280;58763;47.982;11.516;2023-05-07T05:51:48;94117.66;;;13.29;82.19
71107;BME280;58763;47.982;11.516;2023-05-07T05:54:14;94107.69;;;13.38;82.32
71107;BME280;58763;47.982;11.516;2023-05-07T05:56:41;94102.34;;;13.47;82.18
71107;BME280;58763;47.982;11.516;2023-05-07T05:59:07;94106.34;;;13.49;82.21
71107;BME280;58763;47.982;11.516;2023-05-07T06:01:32;94112.06;;;13.61;81.12
71107;BME280;58763;47.982;11.516;2023-05-07T06:03:58;94105.50;;;13.76;80.92
71107;BME280;58763;47.982;11.516;2023-05-07T06:06:23;94108.53;;;13.97;80.83
71107;BME280;58763;47.982;11.516;2023-05-07T06:08:49;94105.03;;;13.96;80.61
71107;BME280;58763;47.982;11.516;2023-05-07T06:11:14;94115.84;;;14.10;80.80
71107;BME280;58763;47.982;11.516;2023-05-07T06:13:40;94110.97;;;14.20;79.86
71107;BME280;58763;47.982;11.516;2023-05-07T06:16:06;94118.97;;;14.39;79.38
71107;BME280;58763;47.982;11.516;2023-05-07T06:18:31;94123.50;;;14.52;80.34
71107;BME280;58763;47.982;11.516;2023-05-07T06:20:57;94120.09;;;14.69;77.55
71107;BME280;58763;47.982;11.516;2023-05-07T06:23:22;94121.28;;;14.85;77.33
71107;BME280;58763;47.982;11.516;2023-05-07T06:25:48;94127.75;;;14.97;76.73
71107;BME280;58763;47.982;11.516;2023-05-07T06:28:15;94122.88;;;15.16;76.65
71107;BME280;58763;47.982;11.516;2023-05-07T06:30:41;94127.59;;;15.42;76.14
71107;BME280;58763;47.982;11.516;2023-05-07T06:33:06;94126.22;;;15.61;75.88
71107;BME280;58763;47.982;11.516;2023-05-07T06:35:31;94129.94;;;15.82;74.27
71107;BME280;58763;47.982;11.516;2023-05-07T06:37:57;94122.59;;;16.09;73.75
71107;BME280;58763;47.982;11.516;2023-05-07T06:40:22;94127.41;;;16.37;71.86
71107;BME280;58763;47.982;11.516;2023-05-07T06:42:48;94126.59;;;16.63;71.08
71107;BME280;58763;47.982;11.516;2023-05-07T06:45:13;94121.59;;;16.73;69.57
71107;BME280;58763;47.982;11.516;2023-05-07T06:47:39;94130.72;;;16.77;69.00
71107;BME280;58763;47.982;11.516;2023-05-07T06:50:05;94127.06;;;16.73;68.45
71107;BME280;58763;47.982;11.516;2023-05-07T06:52:31;94124.47;;;16.77;67.47
71107;BME280;58763;47.982;11.516;2023-05-07T06:54:56;94130.84;;;16.98;67.27
71107;BME280;58763;47.982;11.516;2023-05-07T06:57:22;94133.06;;;17.04;66.41
71107;BME280;58763;47.982;11.516;2023-05-07T06:59:47;94130.44;;;17.16;66.89
71107;BME280;58763;47.982;11.516;2023-05-07T07:02:12;94130.38;;;17.34;67.11
71107;BME280;58763;47.982;11.516;2023-05-07T07:04:38;94126.13;;;17.53;66.53
71107;BME280;58763;47.982;11.516;2023-05-07T07:07:03;94118.28;;;17.72;65.10
71107;BME280;58763;47.982;11.516;2023-05-07T07:09:29;94124.66;;;17.85;64.91
71107;BME280;58763;47.982;11.516;2023-05-07T07:11:54;94121.97;;;17.97;64.81
71107;BME280;58763;47.982;11.516;2023-05-07T07:14:20;94125.31;;;18.03;62.19
71107;BME280;58763;47.982;11.516;2023-05-07T07:16:45;94122.66;;;17.94;62.92
71107;BME280;58763;47.982;11.516;2023-05-07T07:19:12;94130.63;;;17.78;62.44
71107;BME280;58763;47.982;11.516;2023-05-07T07:21:37;94130.63;;;17.78;63.95
71107;BME280;58763;47.982;11.516;2023-05-07T07:24:03;94140.50;;;17.71;63.91
71107;BME280;58763;47.982;11.516;2023-05-07T07:26:28;94141.69;;;17.61;64.39
71107;BME280;58763;47.982;11.516;2023-05-07T07:28:54;94139.19;;;17.77;64.03
71107;BME280;58763;47.982;11.516;2023-05-07T07:31:19;94131.44;;;17.79;63.88
71107;BME280;58763;47.982;11.516;2023-05-07T07:33:45;94131.72;;;17.86;64.36
71107;BME280;58763;47.982;11.516;2023-05-07T07:36:10;94134.19;;;18.00;64.90
71107;BME280;58763;47.982;11.516;2023-05-07T07:38:36;94138.38;;;18.47;63.39
71107;BME280;58763;47.982;11.516;2023-05-07T07:41:01;94134.22;;;18.41;62.72
71107;BME280;58763;47.982;11.516;2023-05-07T07:43:27;94128.28;;;18.59;62.85
71107;BME280;58763;47.982;11.516;2023-05-07T07:45:53;94135.78;;;18.50;60.98
71107;BME280;58763;47.982;11.516;2023-05-07T07:48:19;94134.69;;;18.63;61.04
71107;BME280;58763;47.982;11.516;2023-05-07T07:50:48;94130.56;;;18.57;62.04
71107;BME280;58763;47.982;11.516;2023-05-07T07:53:14;94133.16;;;18.87;61.60
71107;BME280;58763;47.982;11.516;2023-05-07T07:55:39;94136.78;;;19.23;61.16
71107;BME280;58763;47.982;11.516;2023-05-07T07:58:05;94139.22;;;19.37;60.19
71107;BME280;58763;47.982;11.516;2023-05-07T08:00:30;94139.13;;;19.46;58.11
71107;BME280;58763;47.982;11.516;2023-05-07T08:02:56;94136.84;;;19.48;60.25
71107;BME280;58763;47.982;11.516;2023-05-07T08:05:22;94140.16;;;19.89;59.90
71107;BME280;58763;47.982;11.516;2023-05-07T08:07:48;94134.53;;;20.22;58.44
71107;BME280;58763;47.982;11.516;2023-05-07T08:10:17;94135.53;;;20.30;56.08
71107;BME280;58763;47.982;11.516;2023-05-07T08:12:47;94138.53;;;20.25;55.97
71107;BME280;58763;47.982;11.516;2023-05-07T08:15:13;94136.47;;;20.22;56.34
71107;BME280;58763;47.982;11.516;2023-05-07T08:17:38;94136.34;;;20.06;55.80
71107;BME280;58763;47.982;11.516;2023-05-07T08:20:04;94141.03;;;20.30;55.67
71107;BME280;58763;47.982;11.516;2023-05-07T08:22:30;94137.13;;;20.31;53.56
71107;BME280;58763;47.982;11.516;2023-05-07T08:24:56;94139.59;;;20.48;55.33
71107;BME280;58763;47.982;11.516;2023-05-07T08:27:21;94141.50;;;20.59;56.04
71107;BME280;58763;47.982;11.516;2023-05-07T08:29:47;94147.16;;;20.51;53.73
71107;BME280;58763;47.982;11.516;2023-05-07T08:32:13;94137.94;;;20.59;54.94
71107;BME280;58763;47.982;11.516;2023-05-07T08:34:38;94140.47;;;20.64;56.01
71107;BME280;58763;47.982;11.516;2023-05-07T08:37:04;94129.44;;;20.76;55.17
71107;BME280;58763;47.982;11.516;2023-05-07T08:39:29;94133.25;;;20.87;53.92
71107;BME280;58763;47.982;11.516;2023-05-07T08:41:55;94142.19;;;20.84;54.25
71107;BME280;58763;47.982;11.516;2023-05-07T08:44:26;94135.38;;;20.78;52.49
71107;BME280;58763;47.982;11.516;2023-05-07T08:46:54;94141.94;;;20.89;52.57
71107;BME280;58763;47.982;11.516;2023-05-07T08:49:21;94132.16;;;20.76;51.14
71107;BME280;58763;47.982;11.516;2023-05-07T08:51:46;94137.88;;;20.83;53.50
71107;BME280;58763;47.982;11.516;2023-05-07T08:54:15;94136.44;;;20.89;54.50
71107;BME280;58763;47.982;11.516;2023-05-07T08:56:41;94147.56;;;20.93;54.46
71107;BME280;58763;47.982;11.516;2023-05-07T08:59:07;94142.94;;;20.97;51.62
71107;BME280;58763;47.982;11.516;2023-05-07T09:01:32;94146.19;;;21.14;49.91
71107;BME280;58763;47.982;11.516;2023-05-07T09:04:00;94152.81;;;21.25;50.33
71107;BME280;58763;47.982;11.516;2023-05-07T09:06:26;94147.53;;;21.05;49.18
71107;BME280;58763;47.982;11.516;2023-05-07T09:08:53;94148.41;;;21.09;49.50
71107;BME280;58763;47.982;11.516;2023-05-07T09:11:25;94145.69;;;21.24;49.89
71107;BME280;58763;47.982;11.516;2023-05-07T09:13:54;94147.41;;;21.45;50.33
71107;BME280;58763;47.982;11.516;2023-05-07T09:16:25;94142.25;;;21.59;53.51
71107;BME280;58763;47.982;11.516;2023-05-07T09:18:52;94150.41;;;21.71;52.57
71107;BME280;58763;47.982;11.516;2023-05-07T09:21:19;94142.88;;;21.83;51.23
71107;BME280;58763;47.982;11.516;2023-05-07T09:23:45;94142.69;;;21.76;50.09
71107;BME280;58763;47.982;11.516;2023-05-07T09:26:10;94149.28;;;21.72;49.78
71107;BME280;58763;47.982;11.516;2023-05-07T09:28:42;94143.84;;;21.60;48.65
71107;BME280;58763;47.982;11.516;2023-05-07T09:31:10;94138.16;;;21.53;49.73
71107;BME280;58763;47.982;11.516;2023-05-07T09:33:37;94145.16;;;21.66;50.04
71107;BME280;58763;47.982;11.516;2023-05-07T09:36:05;94140.47;;;21.97;49.82
71107;BME280;58763;47.982;11.516;2023-05-07T09:38:37;94140.09;;;22.15;49.70
71107;BME280;58763;47.982;11.516;2023-05-07T09:41:11;94139.25;;;22.30;49.05
71107;BME280;58763;47.982;11.516;2023-05-07T09:43:37;94145.78;;;22.41;48.58
71107;BME280;58763;47.982;11.516;2023-05-07T09:46:12;94136.94;;;22.32;47.81
71107;BME280;58763;47.982;11.516;2023-05-07T09:48:38;94136.44;;;22.45;47.47
71107;BME280;58763;47.982;11.516;2023-05-07T09:51:22;94130.59;;;22.47;47.00
71107;BME280;58763;47.982;11.516;2023-05-07T09:53:52;94135.16;;;22.58;48.29
71107;BME280;58763;47.982;11.516;2023-05-07T09:56:19;94137.81;;;22.71;47.10
71107;BME280;58763;47.982;11.516;2023-05-07T09:58:45;94139.50;;;22.75;48.22
71107;BME280;58763;47.982;11.516;2023-05-07T10:01:12;94133.31;;;22.62;46.21
71107;BME280;58763;47.982;11.516;2023-05-07T10:03:40;94132.22;;;22.67;46.44
71107;BME280;58763;47.982;11.516;2023-05-07T10:06:09;94138.06;;;22.46;48.19
71107;BME280;58763;47.982;11.516;2023-05-07T10:08:36;94136.25;;;22.54;47.25
71107;BME280;58763;47.982;11.516;2023-05-07T10:11:03;94131.28;;;22.79;46.60
71107;BME280;58763;47.982;11.516;2023-05-07T10:13:29;94141.34;;;22.90;45.85
71107;BME280;58763;47.982;11.516;2023-05-07T10:15:55;94134.84;;;22.98;45.44
71107;BME280;58763;47.982;11.516;2023-05-07T10:18:21;94133.31;;;23.01;44.25
71107;BME280;58763;47.982;11.516;2023-05-07T10:21:07;94138.16;;;23.07;42.18
71107;BME280;58763;47.982;11.516;2023-05-07T10:23:34;94130.69;;;23.08;42.70
71107;BME280;58763;47.982;11.516;2023-05-07T10:26:04;94140.97;;;23.11;41.97
71107;BME280;58763;47.982;11.516;2023-05-07T10:28:33;94139.44;;;23.13;43.23
71107;BME280;58763;47.982;11.516;2023-05-07T10:33:32;94133.53;;;23.34;44.24
71107;BME280;58763;47.982;11.516;2023-05-07T10:36:00;94141.66;;;23.46;43.81
71107;BME280;58763;47.982;11.516;2023-05-07T10:38:27;94150.16;;;23.57;41.72
71107;BME280;58763;47.982;11.516;2023-05-07T10:40:53;94147.56;;;23.67;41.70
71107;BME280;58763;47.982;11.516;2023-05-07T10:43:19;94138.72;;;23.58;42.81
71107;BME280;58763;47.982;11.516;2023-05-07T10:51:27;94144.00;;;23.44;47.69
71107;BME280;58763;47.982;11.516;2023-05-07T10:56:40;94126.41;;;23.75;46.21
71107;BME280;58763;47.982;11.516;2023-05-07T11:04:21;94134.06;;;23.85;45.15
71107;BME280;58763;47.982;11.516;2023-05-07T11:10:02;94139.09;;;23.79;44.07
71107;BME280;58763;47.982;11.516;2023-05-07T11:15:01;94136.44;;;23.86;43.94
71107;BME280;58763;47.982;11.516;2023-05-07T11:17:27;94136.09;;;24.11;44.95
71107;BME280;58763;47.982;11.516;2023-05-07T11:19:57;94128.84;;;24.29;43.50
71107;BME280;58763;47.982;11.516;2023-05-07T11:25:02;94123.09;;;24.70;41.89
71107;BME280;58763;47.982;11.516;2023-05-07T11:27:28;94123.00;;;24.93;41.92
71107;BME280;58763;47.982;11.516;2023-05-07T11:29:54;94119.44;;;24.93;40.35
71107;BME280;58763;47.982;11.516;2023-05-07T11:32:24;94119.22;;;24.75;40.50
71107;BME280;58763;47.982;11.516;2023-05-07T11:34:54;94111.44;;;24.84;39.42
71107;BME280;58763;47.982;11.516;2023-05-07T11:37:21;94119.84;;;24.91;41.41
71107;BME280;58763;47.982;11.516;2023-05-07T11:39:47;94112.75;;;24.94;40.75
71107;BME280;58763;47.982;11.516;2023-05-07T11:42:31;94109.66;;;24.99;39.47
71107;BME280;58763;47.982;11.516;2023-05-07T11:44:57;94106.56;;;25.07;38.61
71107;BME280;58763;47.982;11.516;2023-05-07T11:47:23;94105.25;;;24.94;37.90
71107;BME280;58763;47.982;11.516;2023-05-07T11:49:50;94113.56;;;24.94;38.60
71107;BME280;58763;47.982;11.516;2023-05-07T11:52:17;94114.94;;;24.78;39.04
71107;BME280;58763;47.982;11.516;2023-05-07T11:54:54;94113.63;;;24.71;39.83
71107;BME280;58763;47.982;11.516;2023-05-07T11:57:23;94113.25;;;24.73;39.09
71107;BME280;58763;47.982;11.516;2023-05-07T11:59:59;94109.91;;;24.87;39.81
71107;BME280;58763;47.982;11.516;2023-05-07T12:02:27;94104.16;;;24.72;40.42
71107;BME280;58763;47.982;11.516;2023-05-07T12:04:54;94108.00;;;24.64;44.39
71107;BME280;58763;47.982;11.516;2023-05-07T12:07:20;94099.91;;;24.79;44.20
71107;BME280;58763;47.982;11.516;2023-05-07T12:09:47;94098.81;;;24.83;44.41
71107;BME280;58763;47.982;11.516;2023-05-07T12:12:13;94095.75;;;24.95;43.25
71107;BME280;58763;47.982;11.516;2023-05-07T12:14:44;94099.75;;;24.98;42.14
71107;BME280;58763;47.982;11.516;2023-05-07T12:17:11;94104.38;;;24.87;42.61
71107;BME280;58763;47.982;11.516;2023-05-07T12:19:39;94097.13;;;24.79;39.50
71107;BME280;58763;47.982;11.516;2023-05-07T12:22:05;94095.47;;;24.74;42.68
71107;BME280;58763;47.982;11.516;2023-05-07T12:24:48;94094.22;;;24.68;43.59
71107;BME280;58763;47.982;11.516;2023-05-07T12:27:15;94087.06;;;24.63;41.72
71107;BME280;58763;47.982;11.516;2023-05-07T12:29:46;94090.28;;;24.39;42.43
71107;BME280;58763;47.982;11.516;2023-05-07T12:32:15;94084.94;;;24.24;45.95
71107;BME280;58763;47.982;11.516;2023-05-07T12:34:41;94082.72;;;24.07;44.16
71107;BME280;58763;47.982;11.516;2023-05-07T12:37:07;94075.47;;;23.98;45.03
71107;BME280;58763;47.982;11.516;2023-05-07T12:39:32;94075.75;;;24.16;46.06
71107;BME280;58763;47.982;11.516;2023-05-07T12:41:59;94075.31;;;24.40;44.57
71107;BME280;58763;47.982;11.516;2023-05-07T12:44:28;94069.63;;;24.30;43.29
71107;BME280;58763;47.982;11.516;2023-05-07T12:46:54;94076.03;;;24.34;43.13
71107;BME280;58763;47.982;11.516;2023-05-07T12:49:20;94078.81;;;24.37;42.82
71107;BME280;58763;47.982;11.516;2023-05-07T12:51:49;94077.41;;;24.21;42.85
71107;BME280;58763;47.982;11.516;2023-05-07T12:54:34;94079.53;;;24.31;44.96
71107;BME280;58763;47.982;11.516;2023-05-07T12:57:04;94076.22;;;24.48;44.80
71107;BME280;58763;47.982;11.516;2023-05-07T12:59:35;94072.31;;;24.52;43.71
71107;BME280;58763;47.982;11.516;2023-05-07T13:02:01;94067.13;;;24.47;44.70
71107;BME280;58763;47.982;11.516;2023-05-07T13:04:26;94067.56;;;24.53;44.72
71107;BME280;58763;47.982;11.516;2023-05-07T13:06:52;94066.91;;;24.63;43.10
71107;BME280;58763;47.982;11.516;2023-05-07T13:09:17;94075.34;;;24.73;44.35
71107;BME280;58763;47.982;11.516;2023-05-07T13:11:43;94077.22;;;24.66;42.32
71107;BME280;58763;47.982;11.516;2023-05-07T13:14:08;94078.72;;;24.60;41.67